createdAt,value
2023-05-02T00:00:50.775Z,98360.19
2023-05-02T00:03:17.610Z,98353.91
2023-05-02T00:05:44.672Z,98355.09
2023-05-02T00:08:12.118Z,98355.09
2023-05-02T00:10:38.798Z,98346.41
2023-05-02T00:13:05.568Z,98339.75
2023-05-02T00:15:32.287Z,98352.09
2023-05-02T00:17:59.007Z,98348.66
2023-05-02T00:20:25.723Z,98354.34
2023-05-02T00:22:52.263Z,98347.81
2023-05-02T00:25:18.789Z,98355.22
2023-05-02T00:27:46.899Z,98349.09
2023-05-02T00:30:14.438Z,98351.97
2023-05-02T00:32:41.052Z,98352.78
2023-05-02T00:35:08.686Z,98359.03
2023-05-02T00:37:35.365Z,98354.63
2023-05-02T00:40:03.544Z,98356.34
2023-05-02T00:42:34.611Z,98353.81
2023-05-02T00:45:01.179Z,98356.75
2023-05-02T00:47:27.763Z,98364.53
2023-05-02T00:49:54.308Z,98362.06
2023-05-02T00:52:20.981Z,98358.63
2023-05-02T00:54:47.600Z,98357.06
2023-05-02T00:57:14.197Z,98364.22
2023-05-02T00:59:40.841Z,98354.72
2023-05-02T01:02:28.746Z,98366.94
2023-05-02T01:05:01.397Z,98371.34
2023-05-02T01:07:37.063Z,98369.63
2023-05-02T01:10:32.847Z,98362.03
2023-05-02T01:13:09.929Z,98367.34
2023-05-02T01:15:39.480Z,98370.00
2023-05-02T01:18:09.912Z,98378.97
2023-05-02T01:20:41.938Z,98380.97
2023-05-02T01:23:25.970Z,98377.59
2023-05-02T01:26:16.450Z,98386.22
2023-05-02T01:28:45.877Z,98386.88
2023-05-02T01:31:14.080Z,98384.88
2023-05-02T01:33:47.498Z,98391.75
2023-05-02T01:36:23.554Z,98389.69
2023-05-02T01:38:51.841Z,98385.31
2023-05-02T01:41:19.012Z,98384.19
2023-05-02T01:43:47.187Z,98395.53
2023-05-02T01:46:15.567Z,98391.22
2023-05-02T01:48:46.853Z,98392.13
2023-05-02T01:51:16.106Z,98400.09
2023-05-02T01:53:44.507Z,98390.50
2023-05-02T01:56:11.136Z,98395.75
2023-05-02T01:58:38.879Z,98412.34
2023-05-02T02:01:06.634Z,98408.16
2023-05-02T02:03:33.256Z,98411.59
2023-05-02T02:06:02.319Z,98416.25
2023-05-02T02:08:28.946Z,98415.34
2023-05-02T02:11:00.308Z,98416.97
2023-05-02T02:13:32.840Z,98424.81
2023-05-02T02:16:04.108Z,98424.00
2023-05-02T02:18:35.660Z,98422.28
2023-05-02T02:21:03.632Z,98426.53
2023-05-02T02:23:32.695Z,98425.69
2023-05-02T02:26:02.579Z,98422.19
2023-05-02T02:28:29.175Z,98426.72
2023-05-02T02:30:56.342Z,98436.22
2023-05-02T02:33:30.128Z,98433.56
2023-05-02T02:36:27.689Z,98432.63
2023-05-02T02:39:12.418Z,98435.19
2023-05-02T02:41:59.215Z,98436.09
2023-05-02T02:44:50.689Z,98437.63
2023-05-02T02:47:32.619Z,98448.16
2023-05-02T02:50:14.884Z,98447.28
2023-05-02T02:53:04.534Z,98452.59
2023-05-02T02:56:06.562Z,98451.69
2023-05-02T02:58:35.983Z,98456.75
2023-05-02T03:01:06.722Z,98466.41
2023-05-02T03:03:34.499Z,98461.19
2023-05-02T03:06:03.947Z,98463.78
2023-05-02T03:08:44.715Z,98467.03
2023-05-02T03:11:11.489Z,98469.75
2023-05-02T03:13:38.217Z,98466.34
2023-05-02T03:16:34.727Z,98468.97
2023-05-02T03:19:01.359Z,98467.16
2023-05-02T03:21:28.461Z,98474.28
2023-05-02T03:23:54.958Z,98469.19
2023-05-02T03:26:21.482Z,98479.88
2023-05-02T03:28:48.953Z,98476.97
2023-05-02T03:31:16.170Z,98476.19
2023-05-02T03:33:42.852Z,98488.50
2023-05-02T03:36:09.472Z,98475.34
2023-05-02T03:38:35.995Z,98488.50
2023-05-02T03:41:03.237Z,98491.19
2023-05-02T03:43:30.561Z,98488.72
2023-05-02T03:45:57.842Z,98487.00
2023-05-02T03:48:24.400Z,98490.53
2023-05-02T03:50:50.957Z,98494.97
2023-05-02T03:53:17.557Z,98499.38
2023-05-02T03:55:44.089Z,98502.84
2023-05-02T03:58:10.846Z,98497.47
2023-05-02T04:00:38.418Z,98501.91
2023-05-02T04:03:05.065Z,98505.44
2023-05-02T04:05:31.703Z,98508.09
2023-05-02T04:07:58.459Z,98512.63
2023-05-02T04:10:25.059Z,98513.50
2023-05-02T04:12:51.600Z,98514.19
2023-05-02T04:15:18.452Z,98518.66
2023-05-02T04:17:45.074Z,98523.19
2023-05-02T04:20:12.062Z,98524.09
2023-05-02T04:22:39.849Z,98527.53
2023-05-02T04:25:07.809Z,98532.72
2023-05-02T04:27:34.459Z,98543.16
2023-05-02T04:30:01.573Z,98543.22
2023-05-02T04:32:28.498Z,98544.00
2023-05-02T04:34:55.163Z,98549.13
2023-05-02T04:37:21.778Z,98551.66
2023-05-02T04:39:48.498Z,98561.09
2023-05-02T04:42:15.197Z,98568.84
2023-05-02T04:44:41.771Z,98567.81
2023-05-02T04:47:08.485Z,98568.59
2023-05-02T04:49:35.056Z,98568.44
2023-05-02T04:52:01.742Z,98571.00
2023-05-02T04:54:28.275Z,98572.50
2023-05-02T04:56:54.904Z,98591.06
2023-05-02T04:59:21.406Z,98592.56
2023-05-02T05:01:48.068Z,98593.44
2023-05-02T05:04:14.912Z,98595.13
2023-05-02T05:06:41.663Z,98613.53
2023-05-02T05:09:08.286Z,98618.66
2023-05-02T05:11:34.854Z,98618.66
2023-05-02T05:14:04.169Z,98630.84
2023-05-02T05:16:31.133Z,98630.69
2023-05-02T05:18:57.813Z,98637.72
2023-05-02T05:21:24.439Z,98633.97
2023-05-02T05:23:51.373Z,98643.69
2023-05-02T05:26:17.952Z,98649.94
2023-05-02T05:28:44.896Z,98644.47
2023-05-02T05:31:15.239Z,98645.22
2023-05-02T05:33:43.972Z,98640.78
2023-05-02T05:36:12.607Z,98652.16
2023-05-02T05:38:39.218Z,98654.56
2023-05-02T05:41:06.645Z,98660.41
2023-05-02T05:43:33.257Z,98661.38
2023-05-02T05:45:59.996Z,98660.28
2023-05-02T05:48:26.673Z,98664.25
2023-05-02T05:50:53.420Z,98661.53
2023-05-02T05:53:20.409Z,98665.88
2023-05-02T05:55:47.042Z,98667.59
2023-05-02T05:58:14.036Z,98677.72
2023-05-02T06:00:40.698Z,98678.53
2023-05-02T06:03:09.412Z,98683.94
2023-05-02T06:05:36.536Z,98682.59
2023-05-02T06:08:03.086Z,98688.34
2023-05-02T06:10:31.357Z,98684.09
2023-05-02T06:12:58.033Z,98697.75
2023-05-02T06:15:24.621Z,98700.06
2023-05-02T06:17:52.139Z,98703.53
2023-05-02T06:20:18.972Z,98710.16
2023-05-02T06:22:46.267Z,98705.41
2023-05-02T06:25:12.818Z,98715.34
2023-05-02T06:27:39.319Z,98716.38
2023-05-02T06:30:06.768Z,98717.91
2023-05-02T06:32:33.379Z,98724.31
2023-05-02T06:34:59.932Z,98734.50
2023-05-02T06:37:26.438Z,98735.16
2023-05-02T06:39:53.064Z,98740.22
2023-05-02T06:42:19.574Z,98742.16
2023-05-02T06:44:46.094Z,98737.09
2023-05-02T06:47:12.909Z,98743.03
2023-05-02T06:49:39.502Z,98755.78
2023-05-02T06:52:06.000Z,98753.03
2023-05-02T06:54:32.506Z,98760.97
2023-05-02T06:56:59.862Z,98758.41
2023-05-02T06:59:26.418Z,98765.16
2023-05-02T07:01:52.910Z,98768.09
2023-05-02T07:04:19.516Z,98777.34
2023-05-02T07:06:46.922Z,98771.31
2023-05-02T07:09:13.573Z,98784.00
2023-05-02T07:11:40.126Z,98785.03
2023-05-02T07:14:06.701Z,98780.84
2023-05-02T07:16:33.538Z,98782.00
2023-05-02T07:19:00.262Z,98783.22
2023-05-02T07:21:27.032Z,98784.22
2023-05-02T07:23:55.674Z,98783.25
2023-05-02T07:26:22.914Z,98792.19
2023-05-02T07:28:49.484Z,98794.38
2023-05-02T07:31:18.308Z,98795.81
2023-05-02T07:33:46.577Z,98798.50
2023-05-02T07:36:13.332Z,98799.91
2023-05-02T07:38:40.114Z,98801.22
2023-05-02T07:41:06.791Z,98806.75
2023-05-02T07:43:34.065Z,98809.09
2023-05-02T07:46:04.986Z,98808.31
2023-05-02T07:48:31.649Z,98806.50
2023-05-02T07:51:07.001Z,98812.00
2023-05-02T07:53:34.136Z,98808.56
2023-05-02T07:56:01.241Z,98820.34
2023-05-02T07:58:28.314Z,98815.91
2023-05-02T08:00:55.106Z,98817.09
2023-05-02T08:03:22.047Z,98820.50
2023-05-02T08:05:48.694Z,98824.66
2023-05-02T08:08:15.281Z,98828.44
2023-05-02T08:10:41.838Z,98834.31
2023-05-02T08:13:08.359Z,98840.50
2023-05-02T08:15:35.147Z,98842.03
2023-05-02T08:18:01.805Z,98837.41
2023-05-02T08:20:28.307Z,98843.91
2023-05-02T08:22:54.929Z,98844.00
2023-05-02T08:25:22.164Z,98861.63
2023-05-02T08:27:48.759Z,98851.72
2023-05-02T08:30:15.623Z,98859.03
2023-05-02T08:32:42.529Z,98856.81
2023-05-02T08:35:09.316Z,98850.75
2023-05-02T08:37:36.466Z,98853.81
2023-05-02T08:40:03.726Z,98853.41
2023-05-02T08:42:32.983Z,98858.84
2023-05-02T08:45:00.049Z,98861.06
2023-05-02T08:47:27.774Z,98864.94
2023-05-02T08:49:56.587Z,98858.50
2023-05-02T08:52:24.907Z,98861.16
2023-05-02T08:54:52.376Z,98867.09
2023-05-02T08:57:19.009Z,98872.19
2023-05-02T08:59:45.546Z,98869.44
2023-05-02T09:02:35.170Z,98881.22
2023-05-02T09:05:07.719Z,98872.03
2023-05-02T09:07:48.825Z,98872.06
2023-05-02T09:10:16.058Z,98882.00
2023-05-02T09:12:42.907Z,98887.50
2023-05-02T09:15:16.855Z,98882.19
2023-05-02T09:17:46.853Z,98884.56
2023-05-02T09:20:15.435Z,98891.91
2023-05-02T09:22:53.133Z,98892.13
2023-05-02T09:25:20.486Z,98904.22
2023-05-02T09:27:54.324Z,98898.84
2023-05-02T09:30:25.796Z,98891.72
2023-05-02T09:32:55.426Z,98887.28
2023-05-02T09:35:25.267Z,98889.53
2023-05-02T09:37:52.882Z,98894.31
2023-05-02T09:40:20.562Z,98889.34
2023-05-02T09:42:47.665Z,98879.13
2023-05-02T09:45:24.210Z,98894.09
2023-05-02T09:47:51.889Z,98896.03
2023-05-02T09:50:38.335Z,98893.00
2023-05-02T09:53:09.936Z,98901.88
2023-05-02T09:55:36.672Z,98902.63
2023-05-02T09:58:03.818Z,98900.81
2023-05-02T10:00:44.390Z,98903.94
2023-05-02T10:03:17.800Z,98907.72
2023-05-02T10:05:46.228Z,98901.16
2023-05-02T10:08:14.076Z,98904.78
2023-05-02T10:10:45.043Z,98904.47
2023-05-02T10:13:13.308Z,98905.03
2023-05-02T10:15:44.818Z,98901.06
2023-05-02T10:18:21.330Z,98896.94
2023-05-02T10:21:05.628Z,98896.09
2023-05-02T10:23:33.541Z,98890.00
2023-05-02T10:26:00.479Z,98896.91
2023-05-02T10:28:28.241Z,98892.84
2023-05-02T10:30:54.952Z,98885.38
2023-05-02T10:33:22.919Z,98890.00
2023-05-02T10:35:49.875Z,98910.63
2023-05-02T10:38:21.625Z,98902.28
2023-05-02T10:41:05.442Z,98912.16
2023-05-02T10:43:35.210Z,98913.72
2023-05-02T10:46:03.715Z,98921.47
2023-05-02T10:48:30.687Z,98925.81
2023-05-02T10:51:01.814Z,98922.94
2023-05-02T10:53:40.426Z,98928.47
2023-05-02T10:56:17.499Z,98927.44
2023-05-02T10:58:46.504Z,98929.56
2023-05-02T11:01:26.508Z,98931.50
2023-05-02T11:04:06.732Z,98927.06
2023-05-02T11:06:36.013Z,98937.50
2023-05-02T11:09:18.703Z,98945.03
2023-05-02T11:11:45.623Z,98951.75
2023-05-02T11:14:35.082Z,98944.75
2023-05-02T11:17:01.804Z,98954.59
2023-05-02T11:19:31.453Z,98951.84
2023-05-02T11:22:18.184Z,98954.63
2023-05-02T11:24:47.947Z,98960.66
2023-05-02T11:27:30.130Z,98966.78
2023-05-02T11:29:58.404Z,98965.75
2023-05-02T11:32:45.907Z,98963.97
2023-05-02T11:35:20.902Z,98965.25
2023-05-02T11:38:02.214Z,98975.31
2023-05-02T11:40:39.879Z,98968.19
2023-05-02T11:43:18.075Z,98962.06
2023-05-02T11:45:44.942Z,98967.00
2023-05-02T11:48:17.932Z,98952.84
2023-05-02T11:53:57.524Z,98958.19
2023-05-02T11:56:25.094Z,98960.97
2023-05-02T11:58:59.807Z,98963.75
2023-05-02T12:01:26.484Z,98974.81
2023-05-02T12:04:08.339Z,98977.91
2023-05-02T12:06:35.540Z,98978.06
2023-05-02T12:09:17.939Z,98983.53
2023-05-02T12:11:45.027Z,98996.56
2023-05-02T12:14:11.648Z,98999.47
2023-05-02T12:16:38.430Z,98996.56
2023-05-02T12:19:05.790Z,98994.94
2023-05-02T12:21:33.524Z,98997.72
2023-05-02T12:24:02.128Z,99004.75
2023-05-02T12:26:33.201Z,99007.28
2023-05-02T12:29:08.371Z,99009.94
2023-05-02T12:31:35.129Z,99012.81
2023-05-02T12:34:01.893Z,99011.47
2023-05-02T12:36:30.337Z,99018.78
2023-05-02T12:38:59.891Z,99015.84
2023-05-02T12:41:39.061Z,99016.09
2023-05-02T12:44:09.584Z,99027.44
2023-05-02T12:46:36.625Z,99026.22
2023-05-02T12:49:03.190Z,99030.44
2023-05-02T12:51:31.717Z,99033.59
2023-05-02T12:53:58.578Z,99032.97
2023-05-02T12:56:27.668Z,99034.25
2023-05-02T12:58:54.398Z,99039.75
2023-05-02T13:01:20.959Z,99045.47
2023-05-02T13:03:53.409Z,99038.53
2023-05-02T13:06:20.025Z,99041.53
2023-05-02T13:08:46.703Z,99047.81
2023-05-02T13:11:14.821Z,99050.31
2023-05-02T13:13:41.386Z,99050.22
2023-05-02T13:16:12.222Z,99049.16
2023-05-02T13:18:39.040Z,99061.38
2023-05-02T13:21:05.832Z,99064.69
2023-05-02T13:23:32.341Z,99057.19
2023-05-02T13:25:59.170Z,99061.63
2023-05-02T13:28:26.043Z,99070.09
2023-05-02T13:30:52.652Z,99077.94
2023-05-02T13:33:19.358Z,99077.94
2023-05-02T13:35:46.619Z,99076.69
2023-05-02T13:38:13.236Z,99086.16
2023-05-02T13:40:39.799Z,99082.78
2023-05-02T13:43:07.223Z,99085.72
2023-05-02T13:45:34.936Z,99091.28
2023-05-02T13:48:12.631Z,99087.03
2023-05-02T13:50:39.392Z,99085.84
2023-05-02T13:53:06.011Z,99085.03
2023-05-02T13:55:32.649Z,99093.28
2023-05-02T13:57:59.246Z,99096.84
2023-05-02T14:00:28.120Z,99085.88
2023-05-02T14:02:55.299Z,99089.31
2023-05-02T14:05:22.087Z,99093.00
2023-05-02T14:07:48.573Z,99090.22
2023-05-02T14:10:15.202Z,99086.09
2023-05-02T14:12:41.738Z,99099.25
2023-05-02T14:15:09.012Z,99096.75
2023-05-02T14:17:35.770Z,99102.28
2023-05-02T14:20:02.502Z,99095.16
2023-05-02T14:22:29.479Z,99100.31
2023-05-02T14:24:56.292Z,99100.13
2023-05-02T14:27:23.150Z,99091.00
2023-05-02T14:29:49.749Z,99104.97
2023-05-02T14:32:19.174Z,99101.88
2023-05-02T14:34:46.053Z,99112.44
2023-05-02T14:37:12.642Z,99112.81
2023-05-02T14:39:40.482Z,99107.94
2023-05-02T14:42:07.420Z,99111.34
2023-05-02T14:44:35.375Z,99118.34
2023-05-02T14:47:02.520Z,99109.34
2023-05-02T14:49:29.132Z,99119.19
2023-05-02T14:51:57.124Z,99120.09
2023-05-02T14:54:29.692Z,99120.44
2023-05-02T14:56:57.336Z,99120.75
2023-05-02T14:59:24.092Z,99119.56
2023-05-02T15:01:51.899Z,99115.94
2023-05-02T15:04:20.022Z,99126.53
2023-05-02T15:06:54.324Z,99124.34
2023-05-02T15:09:26.811Z,99136.00
2023-05-02T15:11:54.870Z,99135.06
2023-05-02T15:14:22.442Z,99132.50
2023-05-02T15:16:49.102Z,99141.94
2023-05-02T15:19:15.829Z,99143.97
2023-05-02T15:21:43.264Z,99149.56
2023-05-02T15:24:10.993Z,99153.44
2023-05-02T15:26:38.509Z,99158.84
2023-05-02T15:29:05.045Z,99161.56
2023-05-02T15:31:31.624Z,99162.50
2023-05-02T15:33:58.325Z,99159.84
2023-05-02T15:36:29.815Z,99168.69
2023-05-02T15:38:56.966Z,99176.69
2023-05-02T15:41:25.067Z,99175.03
2023-05-02T15:43:51.651Z,99191.13
2023-05-02T15:46:18.297Z,99180.69
2023-05-02T15:48:45.241Z,99186.94
2023-05-02T15:51:13.619Z,99196.00
2023-05-02T15:53:42.631Z,99202.13
2023-05-02T15:56:10.313Z,99203.69
2023-05-02T15:58:37.380Z,99204.13
2023-05-02T16:01:04.423Z,99211.19
2023-05-02T16:03:34.353Z,99211.97
2023-05-02T16:08:46.219Z,99226.09
2023-05-02T16:11:12.775Z,99226.25
2023-05-02T16:13:40.487Z,99232.47
2023-05-02T16:16:07.846Z,99235.13
2023-05-02T16:18:34.494Z,99235.06
2023-05-02T16:21:01.496Z,99229.84
2023-05-02T16:23:28.143Z,99230.00
2023-05-02T16:26:01.869Z,99247.63
2023-05-02T16:28:28.745Z,99248.44
2023-05-02T16:30:55.952Z,99247.75
2023-05-02T16:33:22.788Z,99242.47
2023-05-02T16:35:49.372Z,99245.97
2023-05-02T16:38:16.035Z,99251.22
2023-05-02T16:40:46.176Z,99256.53
2023-05-02T16:43:18.060Z,99247.75
2023-05-02T16:46:02.563Z,99253.00
2023-05-02T16:48:29.670Z,99254.75
2023-05-02T16:50:57.454Z,99256.63
2023-05-02T16:53:24.838Z,99260.06
2023-05-02T16:55:52.078Z,99259.19
2023-05-02T16:58:19.450Z,99260.09
2023-05-02T17:00:46.311Z,99267.00
2023-05-02T17:03:13.021Z,99272.22
2023-05-02T17:05:39.886Z,99259.91
2023-05-02T17:08:07.171Z,99274.81
2023-05-02T17:10:34.734Z,99270.38
2023-05-02T17:13:02.025Z,99277.41
2023-05-02T17:15:29.279Z,99275.63
2023-05-02T17:17:55.989Z,99283.59
2023-05-02T17:20:22.735Z,99278.25
2023-05-02T17:22:49.352Z,99282.50
2023-05-02T17:25:18.994Z,99283.31
2023-05-02T17:27:45.664Z,99293.03
2023-05-02T17:30:13.649Z,99295.53
2023-05-02T17:32:40.651Z,99297.47
2023-05-02T17:35:07.673Z,99297.44
2023-05-02T17:37:34.263Z,99301.94
2023-05-02T17:40:05.123Z,99296.75
2023-05-02T17:42:31.858Z,99296.75
2023-05-02T17:44:58.350Z,99298.59
2023-05-02T17:47:25.897Z,99300.31
2023-05-02T17:49:53.951Z,99307.28
2023-05-02T17:52:21.466Z,99298.63
2023-05-02T17:54:47.937Z,99301.28
2023-05-02T17:57:14.711Z,99309.16
2023-05-02T17:59:44.349Z,99292.66
2023-05-02T18:02:11.440Z,99298.84
2023-05-02T18:04:38.602Z,99314.63
2023-05-02T18:07:06.257Z,99315.53
2023-05-02T18:09:33.014Z,99323.41
2023-05-02T18:12:00.685Z,99321.66
2023-05-02T18:14:27.201Z,99325.22
2023-05-02T18:16:54.071Z,99320.84
2023-05-02T18:19:26.004Z,99329.69
2023-05-02T18:21:53.197Z,99325.34
2023-05-02T18:24:20.924Z,99330.56
2023-05-02T18:26:49.051Z,99335.88
2023-05-02T18:29:18.253Z,99349.97
2023-05-02T18:31:50.537Z,99350.84
2023-05-02T18:34:17.119Z,99345.59
2023-05-02T18:36:45.097Z,99352.63
2023-05-02T18:39:11.700Z,99352.63
2023-05-02T18:41:39.497Z,99357.00
2023-05-02T18:44:10.109Z,99363.97
2023-05-02T18:46:36.816Z,99358.72
2023-05-02T18:49:16.354Z,99367.50
2023-05-02T18:51:43.517Z,99364.03
2023-05-02T18:54:10.481Z,99365.75
2023-05-02T18:56:49.560Z,99366.63
2023-05-02T18:59:16.455Z,99367.53
2023-05-02T19:01:43.028Z,99364.91
2023-05-02T19:04:09.675Z,99363.16
2023-05-02T19:06:36.289Z,99364.06
2023-05-02T19:09:04.735Z,99372.81
2023-05-02T19:11:31.422Z,99372.81
2023-05-02T19:14:00.658Z,99375.41
2023-05-02T19:16:29.117Z,99372.78
2023-05-02T19:18:57.050Z,99378.94
2023-05-02T19:21:23.942Z,99383.28
2023-05-02T19:23:51.649Z,99392.03
2023-05-02T19:26:18.648Z,99392.06
2023-05-02T19:28:46.058Z,99401.69
2023-05-02T19:31:16.700Z,99396.47
2023-05-02T19:33:50.131Z,99391.19
2023-05-02T19:36:17.645Z,99402.56
2023-05-02T19:38:44.412Z,99391.16
2023-05-02T19:41:10.975Z,99406.03
2023-05-02T19:43:37.631Z,99400.81
2023-05-02T19:46:04.522Z,99399.03
2023-05-02T19:48:31.200Z,99407.81
2023-05-02T19:50:57.754Z,99413.94
2023-05-02T19:53:25.458Z,99419.19
2023-05-02T19:55:52.027Z,99411.28
2023-05-02T19:58:19.558Z,99416.53
2023-05-02T20:00:49.291Z,99417.41
2023-05-02T20:03:16.544Z,99418.28
2023-05-02T20:05:43.504Z,99417.44
2023-05-02T20:08:10.652Z,99419.19
2023-05-02T20:10:37.498Z,99427.09
2023-05-02T20:13:04.063Z,99434.09
2023-05-02T20:15:30.836Z,99428.84
2023-05-02T20:17:58.653Z,99431.47
2023-05-02T20:20:25.479Z,99430.63
2023-05-02T20:22:52.094Z,99434.09
2023-05-02T20:25:18.667Z,99430.66
2023-05-02T20:27:51.724Z,99434.16
2023-05-02T20:30:19.874Z,99440.25
2023-05-02T20:32:46.617Z,99425.44
2023-05-02T20:35:17.804Z,99432.41
2023-05-02T20:37:51.857Z,99428.91
2023-05-02T20:40:19.341Z,99432.44
2023-05-02T20:42:47.391Z,99434.19
2023-05-02T20:45:14.754Z,99435.06
2023-05-02T20:47:41.367Z,99442.03
2023-05-02T20:50:09.479Z,99435.94
2023-05-02T20:52:40.531Z,99440.31
2023-05-02T20:55:08.034Z,99445.53
2023-05-02T20:57:35.164Z,99444.69
2023-05-02T21:00:02.699Z,99444.69
2023-05-02T21:02:30.173Z,99444.66
2023-05-02T21:04:57.368Z,99439.44
2023-05-02T21:07:23.959Z,99449.91
2023-05-02T21:09:50.514Z,99460.41
2023-05-02T21:12:17.868Z,99451.66
2023-05-02T21:14:44.421Z,99462.16
2023-05-02T21:17:10.992Z,99467.41
2023-05-02T21:19:38.356Z,99463.03
2023-05-02T21:22:04.903Z,99462.16
2023-05-02T21:24:31.454Z,99463.03
2023-05-02T21:26:59.203Z,99467.38
2023-05-02T21:29:25.758Z,99461.28
2023-05-02T21:31:54.122Z,99469.13
2023-05-02T21:34:22.315Z,99474.38
2023-05-02T21:36:49.337Z,99461.25
2023-05-02T21:39:16.396Z,99461.28
2023-05-02T21:41:43.902Z,99471.78
2023-05-02T21:44:11.531Z,99476.94
2023-05-02T21:46:38.280Z,99476.03
2023-05-02T21:49:04.867Z,99480.41
2023-05-02T21:51:31.746Z,99476.91
2023-05-02T21:53:58.247Z,99481.28
2023-05-02T21:56:24.835Z,99482.16
2023-05-02T21:58:51.420Z,99485.63
2023-05-02T22:01:18.222Z,99483.88
2023-05-02T22:03:44.889Z,99488.22
2023-05-02T22:06:11.385Z,99494.31
2023-05-02T22:08:37.980Z,99489.97
2023-05-02T22:11:10.049Z,99489.97
2023-05-02T22:13:36.942Z,99493.47
2023-05-02T22:16:03.797Z,99498.72
2023-05-02T22:18:30.453Z,99489.97
2023-05-02T22:20:58.732Z,99491.69
2023-05-02T22:23:25.472Z,99495.22
2023-05-02T22:25:52.184Z,99495.22
2023-05-02T22:28:18.899Z,99501.34
2023-05-02T22:30:45.497Z,99499.59
2023-05-02T22:33:12.870Z,99502.19
2023-05-02T22:35:40.034Z,99505.63
2023-05-02T22:38:08.874Z,99508.25
2023-05-02T22:40:35.874Z,99516.06
2023-05-02T22:43:02.486Z,99510.81
2023-05-02T22:45:29.079Z,99510.81
2023-05-02T22:47:55.696Z,99509.03
2023-05-02T22:50:22.393Z,99508.97
2023-05-02T22:52:49.377Z,99512.44
2023-05-02T22:55:16.255Z,99511.59
2023-05-02T22:57:43.074Z,99517.63
2023-05-02T23:00:10.505Z,99523.75
2023-05-02T23:02:37.524Z,99516.78
2023-05-02T23:05:04.645Z,99533.31
2023-05-02T23:07:31.264Z,99518.47
2023-05-02T23:09:57.758Z,99521.09
2023-05-02T23:12:24.380Z,99532.44
2023-05-02T23:14:50.947Z,99527.16
2023-05-02T23:17:17.497Z,99534.16
2023-05-02T23:19:44.051Z,99524.59
2023-05-02T23:22:10.602Z,99530.69
2023-05-02T23:24:37.126Z,99541.97
2023-05-02T23:27:03.936Z,99540.22
2023-05-02T23:29:30.484Z,99536.69
2023-05-02T23:31:57.130Z,99534.88
2023-05-02T23:34:23.973Z,99534.91
2023-05-02T23:36:52.226Z,99531.47
2023-05-02T23:39:18.830Z,99533.19
2023-05-02T23:41:45.412Z,99540.13
2023-05-02T23:44:11.938Z,99534.88
2023-05-02T23:46:38.534Z,99530.47
2023-05-02T23:49:05.092Z,99536.50
2023-05-02T23:51:32.216Z,99537.31
2023-05-02T23:53:58.967Z,99531.28
2023-05-02T23:56:26.164Z,99539.06
2023-05-02T23:58:52.730Z,99531.16
